PWSweather.com
Personal Weather Stations
Station Observations
GRD01
Warsaw, LesznoPL 05-084

WarsawLesznoPL 05-084

Lat: 52.257404, Lon: 20.564847

Elevation: 298

Station Type: WH3080

http://pogoda.kampinos.waw.pl

Latest ConditionsUpdated 7:30:00 PM GMT+01:01 Monday, Jul 16, 2018
Currently Today's Max Today's Min Today's Average
Temperature 65.8°F18.8°C 73.9°F23.3°C 60.3°F15.7°C 65.5°F18.6°C
Dew Point 64.7°F18.2°C 69.7°F20.9°C 59.1°F15.1°C 63.5°F17.5°C
Winds 6.0 mph N9.7 kmh N 15.2 mph -24.5 kmh - - 5.0 mph 8.0 kmh
Wind Gusts 9.8 mph15.8 kmh 20.6 mph33.2 kmh - -
Humidity 96% 99% 73% 94%
Pressure 29.50 in999.0 mb 29.60 in1002.4 mb 29.48 in998.3 mb -
Precipitation - 0.89 in22.6 mm - -
Hour Temp Dew Point Humidity Winds Wind Gusts Pressure Precip Precip Rate Daily Precip Total
07:30 PM 65.8°F18.8°C 64.7°F18.2°C 96% 6.0 mph N9.7 kmh N 9.8 mph15.8 kmh 29.50 in999.0 mb 0.00 in0.0 mm 0.00 in0.0 mm 0.89 in22.6 mm
07:15 PM 65.8°F18.8°C 64.4°F18.0°C 95% 6.0 mph N9.7 kmh N 9.8 mph15.8 kmh 29.49 in998.6 mb 0.00 in0.0 mm 0.00 in0.0 mm 0.89 in22.6 mm
07:00 PM 65.8°F18.8°C 64.1°F17.8°C 94% 4.5 mph N7.2 kmh N 8.3 mph13.4 kmh 29.49 in998.6 mb 0.00 in0.0 mm 0.00 in0.0 mm 0.89 in22.6 mm
06:45 PM 65.8°F18.8°C 64.1°F17.8°C 94% 3.1 mph N5.0 kmh N 6.9 mph11.1 kmh 29.49 in998.6 mb 0.00 in0.0 mm 0.00 in0.0 mm 0.89 in22.6 mm
06:30 PM 65.8°F18.8°C 63.8°F17.7°C 93% 4.5 mph N7.2 kmh N 6.9 mph11.1 kmh 29.49 in998.6 mb 0.01 in0.3 mm 0.00 in0.0 mm 0.89 in22.6 mm
06:15 PM 65.8°F18.8°C 63.1°F17.3°C 91% 5.4 mph N8.7 kmh N 8.3 mph13.4 kmh 29.50 in999.0 mb 0.02 in0.5 mm 0.00 in0.0 mm 0.89 in22.6 mm
06:00 PM 66.2°F19.0°C 63.2°F17.3°C 90% 7.6 mph N12.2 kmh N 13.0 mph20.9 kmh 29.50 in999.0 mb 0.02 in0.5 mm 0.00 in0.0 mm 0.89 in22.6 mm
05:45 PM 66.9°F19.4°C 63.2°F17.3°C 88% 8.3 mph N13.4 kmh N 19.0 mph30.6 kmh 29.50 in999.0 mb 0.04 in1.0 mm 0.00 in0.0 mm 0.89 in22.6 mm
05:30 PM 69.1°F20.6°C 68.5°F20.3°C 98% 12.1 mph N19.5 kmh N 19.0 mph30.6 kmh 29.50 in999.0 mb 0.05 in1.3 mm 0.04 in1.0 mm 0.87 in22.1 mm
05:15 PM 70.0°F21.1°C 69.7°F20.9°C 99% 4.5 mph NNW7.2 kmh NNW 9.2 mph14.8 kmh 29.49 in998.6 mb 0.04 in1.0 mm 0.00 in0.0 mm 0.86 in21.8 mm
05:00 PM 69.3°F20.7°C 68.4°F20.2°C 97% 4.5 mph NNW7.2 kmh NNW 7.6 mph12.2 kmh 29.49 in998.6 mb 0.04 in1.0 mm 0.00 in0.0 mm 0.86 in21.8 mm
04:00 PM 67.8°F19.9°C 65.7°F18.7°C 93% 4.5 mph WSW7.2 kmh WSW 6.0 mph9.7 kmh 29.49 in998.6 mb 0.52 in13.2 mm 0.00 in0.0 mm 0.83 in21.1 mm
03:45 PM 67.6°F19.8°C 64.9°F18.3°C 91% 2.2 mph NW3.5 kmh NW 6.9 mph11.1 kmh 29.49 in998.6 mb 0.63 in16.0 mm 0.00 in0.0 mm 0.81 in20.6 mm
03:30 PM 67.6°F19.8°C 64.3°F17.9°C 89% 6.9 mph NW11.1 kmh NW 8.3 mph13.4 kmh 29.50 in999.0 mb 0.63 in16.0 mm 0.72 in18.3 mm 0.81 in20.6 mm
03:15 PM 68.0°F20.0°C 63.7°F17.6°C 86% 6.0 mph N9.7 kmh N 12.1 mph19.5 kmh 29.50 in999.0 mb 0.45 in11.4 mm 1.52 in38.6 mm 0.64 in16.3 mm
03:00 PM 70.2°F21.2°C 63.3°F17.4°C 79% 10.7 mph N17.2 kmh N 18.3 mph29.5 kmh 29.50 in999.0 mb 0.07 in1.8 mm 0.09 in2.3 mm 0.26 in6.6 mm
02:45 PM 73.8°F23.2°C 64.6°F18.1°C 73% 15.2 mph N24.5 kmh N 20.6 mph33.2 kmh 29.48 in998.3 mb 0.00 in0.0 mm 0.00 in0.0 mm 0.19 in4.8 mm
02:30 PM 73.9°F23.3°C 65.9°F18.8°C 76% 4.5 mph NW7.2 kmh NW 9.8 mph15.8 kmh 29.50 in999.0 mb 0.00 in0.0 mm 0.00 in0.0 mm 0.19 in4.8 mm
02:15 PM 73.6°F23.1°C 67.0°F19.4°C 80% 7.6 mph W12.2 kmh W 9.8 mph15.8 kmh 29.50 in999.0 mb 0.00 in0.0 mm 0.00 in0.0 mm 0.19 in4.8 mm
02:00 PM 72.1°F22.3°C 67.7°F19.8°C 86% 1.6 mph N2.6 kmh N 6.0 mph9.7 kmh 29.51 in999.3 mb 0.01 in0.3 mm 0.00 in0.0 mm 0.19 in4.8 mm
01:45 PM 71.6°F22.0°C 68.8°F20.4°C 91% 5.4 mph NW8.7 kmh NW 6.9 mph11.1 kmh 29.51 in999.3 mb 0.01 in0.3 mm 0.00 in0.0 mm 0.19 in4.8 mm
01:30 PM 70.7°F21.5°C 68.6°F20.3°C 93% 2.2 mph NNW3.5 kmh NNW 6.9 mph11.1 kmh 29.52 in999.7 mb 0.01 in0.3 mm 0.00 in0.0 mm 0.19 in4.8 mm
01:15 PM 69.6°F20.9°C 68.4°F20.2°C 96% 3.1 mph NNW5.0 kmh NNW 6.0 mph9.7 kmh 29.52 in999.7 mb 0.01 in0.3 mm 0.04 in1.0 mm 0.19 in4.8 mm
01:00 PM 68.9°F20.5°C 67.7°F19.8°C 96% 2.2 mph NNW3.5 kmh NNW 6.9 mph11.1 kmh 29.52 in999.7 mb 0.00 in0.0 mm 0.00 in0.0 mm 0.18 in4.6 mm
12:45 PM 68.0°F20.0°C 66.2°F19.0°C 94% 2.2 mph NNE3.5 kmh NNE 4.5 mph7.2 kmh 29.53 in1000.0 mb 0.00 in0.0 mm 0.00 in0.0 mm 0.18 in4.6 mm
12:30 PM 67.6°F19.8°C 65.9°F18.8°C 94% 6.0 mph SE9.7 kmh SE 10.7 mph17.2 kmh 29.53 in1000.0 mb 0.00 in0.0 mm 0.00 in0.0 mm 0.18 in4.6 mm
12:15 PM 68.0°F20.0°C 66.2°F19.0°C 94% 5.4 mph S8.7 kmh S 6.9 mph11.1 kmh 29.53 in1000.0 mb 0.00 in0.0 mm 0.00 in0.0 mm 0.18 in4.6 mm
12:00 PM 68.4°F20.2°C 66.6°F19.2°C 94% 3.1 mph W5.0 kmh W 7.6 mph12.2 kmh 29.54 in1000.3 mb 0.01 in0.3 mm 0.00 in0.0 mm 0.18 in4.6 mm
11:45 AM 68.5°F20.3°C 66.7°F19.3°C 94% 2.2 mph NW3.5 kmh NW 7.6 mph12.2 kmh 29.54 in1000.3 mb 0.13 in3.3 mm 0.00 in0.0 mm 0.18 in4.6 mm
11:30 AM 68.2°F20.1°C 66.1°F18.9°C 93% 4.5 mph W7.2 kmh W 7.6 mph12.2 kmh 29.55 in1000.7 mb 0.15 in3.8 mm 0.00 in0.0 mm 0.18 in4.6 mm
11:15 AM 67.5°F19.7°C 64.7°F18.2°C 91% 2.2 mph WNW3.5 kmh WNW 6.0 mph9.7 kmh 29.55 in1000.7 mb 0.15 in3.8 mm 0.04 in1.0 mm 0.18 in4.6 mm
11:00 AM 67.5°F19.7°C 64.4°F18.0°C 90% 2.2 mph NNW3.5 kmh NNW 8.3 mph13.4 kmh 29.55 in1000.7 mb 0.14 in3.6 mm 0.16 in4.1 mm 0.17 in4.3 mm
10:45 AM 68.0°F20.0°C 65.0°F18.3°C 90% 3.1 mph NNW5.0 kmh NNW 12.1 mph19.5 kmh 29.55 in1000.7 mb 0.02 in0.5 mm 0.08 in2.0 mm 0.05 in1.3 mm
10:30 AM 68.0°F20.0°C 65.0°F18.3°C 90% 4.5 mph NNW7.2 kmh NNW 10.7 mph17.2 kmh 29.55 in1000.7 mb 0.00 in0.0 mm 0.00 in0.0 mm 0.02 in0.5 mm
10:15 AM 67.8°F19.9°C 64.8°F18.2°C 90% 6.0 mph NNW9.7 kmh NNW 10.7 mph17.2 kmh 29.54 in1000.3 mb 0.00 in0.0 mm 0.00 in0.0 mm 0.02 in0.5 mm
10:00 AM 68.2°F20.1°C 65.1°F18.4°C 90% 8.3 mph NW13.4 kmh NW 13.0 mph20.9 kmh 29.55 in1000.7 mb 0.00 in0.0 mm 0.00 in0.0 mm 0.02 in0.5 mm
09:45 AM 68.0°F20.0°C 64.6°F18.1°C 89% 3.8 mph WNW6.1 kmh WNW 6.0 mph9.7 kmh 29.53 in1000.0 mb 0.00 in0.0 mm 0.00 in0.0 mm 0.02 in0.5 mm
09:30 AM 67.8°F19.9°C 63.8°F17.7°C 87% 3.8 mph N6.1 kmh N 9.2 mph14.8 kmh 29.55 in1000.7 mb 0.00 in0.0 mm 0.00 in0.0 mm 0.02 in0.5 mm
09:15 AM 67.8°F19.9°C 64.1°F17.8°C 88% 5.4 mph N8.7 kmh N 11.4 mph18.3 kmh 29.55 in1000.7 mb 0.00 in0.0 mm 0.00 in0.0 mm 0.02 in0.5 mm
09:00 AM 67.3°F19.6°C 64.2°F17.9°C 90% 6.9 mph N11.1 kmh N 13.0 mph20.9 kmh 29.55 in1000.7 mb 0.00 in0.0 mm 0.00 in0.0 mm 0.02 in0.5 mm
08:45 AM 67.1°F19.5°C 65.0°F18.3°C 93% 8.3 mph NNW13.4 kmh NNW 11.4 mph18.3 kmh 29.55 in1000.7 mb 0.00 in0.0 mm 0.00 in0.0 mm 0.02 in0.5 mm
08:30 AM 66.4°F19.1°C 64.9°F18.3°C 95% 4.5 mph NNW7.2 kmh NNW 9.2 mph14.8 kmh 29.55 in1000.7 mb 0.00 in0.0 mm 0.00 in0.0 mm 0.02 in0.5 mm
08:15 AM 65.5°F18.6°C 64.0°F17.8°C 95% 4.5 mph NNW7.2 kmh NNW 10.7 mph17.2 kmh 29.55 in1000.7 mb 0.00 in0.0 mm 0.00 in0.0 mm 0.02 in0.5 mm
08:00 AM 64.9°F18.3°C 63.5°F17.5°C 95% 3.8 mph NNW6.1 kmh NNW 9.2 mph14.8 kmh 29.55 in1000.7 mb 0.00 in0.0 mm 0.00 in0.0 mm 0.02 in0.5 mm
07:45 AM 64.6°F18.1°C 63.4°F17.4°C 96% 5.4 mph NNE8.7 kmh NNE 9.2 mph14.8 kmh 29.55 in1000.7 mb 0.00 in0.0 mm 0.00 in0.0 mm 0.02 in0.5 mm
07:30 AM 64.4°F18.0°C 63.2°F17.3°C 96% 8.3 mph NW13.4 kmh NW 10.7 mph17.2 kmh 29.55 in1000.7 mb 0.00 in0.0 mm 0.00 in0.0 mm 0.02 in0.5 mm
07:15 AM 64.0°F17.8°C 63.2°F17.3°C 97% 8.3 mph NW13.4 kmh NW 11.4 mph18.3 kmh 29.56 in1001.0 mb 0.00 in0.0 mm 0.00 in0.0 mm 0.02 in0.5 mm
07:00 AM 63.5°F17.5°C 62.6°F17.0°C 97% 5.4 mph NW8.7 kmh NW 10.7 mph17.2 kmh 29.56 in1001.0 mb 0.01 in0.3 mm 0.00 in0.0 mm 0.02 in0.5 mm
06:45 AM 63.0°F17.2°C 62.7°F17.1°C 99% 6.9 mph NW11.1 kmh NW 8.3 mph13.4 kmh 29.56 in1001.0 mb 0.01 in0.3 mm 0.00 in0.0 mm 0.02 in0.5 mm
06:30 AM 62.4°F16.9°C 61.8°F16.6°C 98% 3.8 mph NW6.1 kmh NW 11.4 mph18.3 kmh 29.56 in1001.0 mb 0.01 in0.3 mm 0.00 in0.0 mm 0.02 in0.5 mm
06:15 AM 62.2°F16.8°C 61.7°F16.5°C 98% 6.9 mph NNW11.1 kmh NNW 9.8 mph15.8 kmh 29.56 in1001.0 mb 0.01 in0.3 mm 0.04 in1.0 mm 0.02 in0.5 mm
06:00 AM 61.7°F16.5°C 61.1°F16.2°C 98% 3.8 mph NNW6.1 kmh NNW 9.8 mph15.8 kmh 29.56 in1001.0 mb 0.00 in0.0 mm 0.00 in0.0 mm 0.01 in0.3 mm
05:45 AM 61.3°F16.3°C 60.5°F15.8°C 97% 8.3 mph NW13.4 kmh NW 9.8 mph15.8 kmh 29.57 in1001.4 mb 0.00 in0.0 mm 0.00 in0.0 mm 0.01 in0.3 mm
05:30 AM 61.0°F16.1°C 60.1°F15.6°C 97% 5.4 mph NNW8.7 kmh NNW 11.4 mph18.3 kmh 29.56 in1001.0 mb 0.00 in0.0 mm 0.00 in0.0 mm 0.01 in0.3 mm
05:15 AM 60.8°F16.0°C 59.9°F15.5°C 97% 6.9 mph NW11.1 kmh NW 11.4 mph18.3 kmh 29.56 in1001.0 mb 0.00 in0.0 mm 0.00 in0.0 mm 0.01 in0.3 mm
05:00 AM 60.6°F15.9°C 59.5°F15.3°C 96% 6.9 mph NW11.1 kmh NW 11.4 mph18.3 kmh 29.57 in1001.4 mb 0.01 in0.3 mm 0.00 in0.0 mm 0.01 in0.3 mm
04:45 AM 60.4°F15.8°C 59.3°F15.2°C 96% 6.9 mph NW11.1 kmh NW 9.2 mph14.8 kmh 29.57 in1001.4 mb 0.01 in0.3 mm 0.00 in0.0 mm 0.01 in0.3 mm
04:30 AM 60.3°F15.7°C 59.1°F15.1°C 96% 6.9 mph N11.1 kmh N 7.6 mph12.2 kmh 29.57 in1001.4 mb 0.01 in0.3 mm 0.00 in0.0 mm 0.01 in0.3 mm
04:15 AM 60.3°F15.7°C 59.1°F15.1°C 96% 3.8 mph NNW6.1 kmh NNW 8.3 mph13.4 kmh 29.57 in1001.4 mb 0.01 in0.3 mm 0.04 in1.0 mm 0.01 in0.3 mm
04:00 AM 60.3°F15.7°C 59.1°F15.1°C 96% 6.9 mph WNW11.1 kmh WNW 9.2 mph14.8 kmh 29.58 in1001.7 mb 0.00 in0.0 mm 0.00 in0.0 mm 0.00 in0.0 mm
03:45 AM 60.3°F15.7°C 59.1°F15.1°C 96% 3.1 mph NW5.0 kmh NW 6.9 mph11.1 kmh 29.57 in1001.4 mb 0.00 in0.0 mm 0.00 in0.0 mm 0.00 in0.0 mm
03:30 AM 60.4°F15.8°C 59.3°F15.2°C 96% 3.8 mph NNW6.1 kmh NNW 6.0 mph9.7 kmh 29.58 in1001.7 mb 0.00 in0.0 mm 0.00 in0.0 mm 0.00 in0.0 mm
03:15 AM 60.6°F15.9°C 59.8°F15.4°C 97% 3.8 mph N6.1 kmh N 5.4 mph8.7 kmh 29.58 in1001.7 mb 0.00 in0.0 mm 0.00 in0.0 mm 0.00 in0.0 mm
03:00 AM 60.6°F15.9°C 59.8°F15.4°C 97% 3.1 mph NNW5.0 kmh NNW 7.6 mph12.2 kmh 29.59 in1002.0 mb 0.00 in0.0 mm 0.00 in0.0 mm 0.00 in0.0 mm
02:45 AM 60.8°F16.0°C 59.9°F15.5°C 97% 3.8 mph NW6.1 kmh NW 8.3 mph13.4 kmh 29.58 in1001.7 mb 0.00 in0.0 mm 0.00 in0.0 mm 0.00 in0.0 mm
02:30 AM 61.0°F16.1°C 60.1°F15.6°C 97% 2.2 mph WNW3.5 kmh WNW 6.0 mph9.7 kmh 29.59 in1002.0 mb 0.00 in0.0 mm 0.00 in0.0 mm 0.00 in0.0 mm
02:15 AM 61.0°F16.1°C 60.1°F15.6°C 97% 2.2 mph NW3.5 kmh NW 4.5 mph7.2 kmh 29.59 in1002.0 mb 0.00 in0.0 mm 0.00 in0.0 mm 0.00 in0.0 mm
02:00 AM 61.2°F16.2°C 60.3°F15.7°C 97% 3.1 mph NW5.0 kmh NW 5.4 mph8.7 kmh 29.60 in1002.4 mb 0.00 in0.0 mm 0.00 in0.0 mm 0.00 in0.0 mm
01:45 AM 61.5°F16.4°C 61.0°F16.1°C 98% 2.2 mph WNW3.5 kmh WNW 3.8 mph6.1 kmh 29.59 in1002.0 mb 0.00 in0.0 mm 0.00 in0.0 mm 0.00 in0.0 mm
01:30 AM 61.7°F16.5°C 61.1°F16.2°C 98% 4.5 mph NNW7.2 kmh NNW 7.6 mph12.2 kmh 29.59 in1002.0 mb 0.00 in0.0 mm 0.00 in0.0 mm 0.00 in0.0 mm
01:15 AM 61.9°F16.6°C 61.3°F16.3°C 98% 3.1 mph N5.0 kmh N 6.9 mph11.1 kmh 29.59 in1002.0 mb 0.00 in0.0 mm 0.00 in0.0 mm 0.00 in0.0 mm
01:00 AM 62.1°F16.7°C 61.5°F16.4°C 98% 5.4 mph NNW8.7 kmh NNW 6.9 mph11.1 kmh 29.59 in1002.0 mb 0.00 in0.0 mm 0.00 in0.0 mm 0.00 in0.0 mm
12:45 AM 62.2°F16.8°C 62.0°F16.7°C 99% 3.1 mph NNW5.0 kmh NNW 6.9 mph11.1 kmh 29.60 in1002.4 mb 0.00 in0.0 mm 0.00 in0.0 mm 0.00 in0.0 mm
12:30 AM 62.4°F16.9°C 62.1°F16.7°C 99% 3.1 mph NNW5.0 kmh NNW 6.0 mph9.7 kmh 29.60 in1002.4 mb 0.00 in0.0 mm 0.00 in0.0 mm 0.00 in0.0 mm
12:15 AM 62.6°F17.0°C 62.3°F16.8°C 99% 3.1 mph NNW5.0 kmh NNW 6.0 mph9.7 kmh 29.60 in1002.4 mb 0.00 in0.0 mm 0.00 in0.0 mm 0.00 in0.0 mm
12:00 AM 62.8°F17.1°C 62.5°F16.9°C 99% 3.8 mph NNW6.1 kmh NNW 6.9 mph11.1 kmh 29.60 in1002.4 mb 0.00 in0.0 mm 0.00 in0.0 mm 0.00 in0.0 mm